• Join FlightAware (Why Join?)
  • Login
  • US Flag 
09:38PM EDT


 

Airport Tracker/Info


-or-


 

Live Flight TrackerFlight Track Log ✈ UAL1070 ✈ 19-Aug-2014 ✈ KDEN - KBIL

Flight Track Log - Related Links

Times and Time Zones

All times are in EDT time to prevent confusion due to time zone crossing. See the UAL1070 flight status page for this flight to view local times or setup timezone preferences in your user account.

Time Position Orientation Groundspeed Altitude Reporting Facility
EDT Latitude Longitude Course Direction KTS MPH feet Rate Location/Type
10:05PM 39.8428 -104.7391 288° West 192 221 6,700  Level FlightAware ADS-B (KEIK)
10:06PM 39.8522 -104.7631 298° West 221 254 7,200 1,200 Climbing FlightAware ADS-B (KEIK)
10:06PM 39.8638 -104.7909 299° West 253 291 7,600 1,500 Climbing FlightAware ADS-B (KEIK)
10:06PM 39.8750 -104.8172 298° West 273 314 8,200 2,160 Climbing FlightAware ADS-B (KEIK)
10:07PM 39.8904 -104.8542 298° West 283 326 9,200 2,340 Climbing FlightAware ADS-B (KEIK)
10:07PM 39.9032 -104.8842 303° West 300 345 9,900 1,200 Climbing FlightAware ADS-B (KEIK)
10:07PM 39.9225 -104.9118 319° Northwest 330 380 10,000 1,740 Climbing FlightAware ADS-B (KEIK)
10:08PM 39.9820 -104.9607 329° Northwest 342 394 11,800 2,640 Climbing FlightAware ADS-B (KEIK)
10:09PM 40.0406 -105.0060 330° Northwest 351 404 13,900 2,880 Climbing FlightAware ADS-B (KEIK)
10:09PM 40.0968 -105.0405 350° North 364 419 15,700 3,180 Climbing FlightAware ADS-B (KANK)
10:10PM 40.1355 -105.0433 North 364 419 17,100 2,880 Climbing FlightAware ADS-B (KEIK)
10:10PM 40.2054 -105.0266 13° North 380 437 18,800 2,340 Climbing FlightAware ADS-B (KANK)
10:11PM 40.2762 -105.0048 13° North 393 452 20,300 2,100 Climbing FlightAware ADS-B (KEIK)
10:12PM 40.3488 -104.9832 13° North 403 464 21,700 1,740 Climbing FlightAware ADS-B (KEIK)
10:12PM 40.4272 -104.9593 14° North 423 487 22,800 1,740 Climbing FlightAware ADS-B (KEIK)
10:13PM 40.5012 -104.9360 12° North 434 499 24,100 1,740 Climbing FlightAware ADS-B (KEIK)
10:14PM 40.5740 -104.9151 13° North 443 510 25,100 1,680 Climbing FlightAware ADS-B (KEIK)
10:14PM 40.6364 -104.8962 13° North 447 514 26,100 2,160 Climbing FlightAware ADS-B (KANK)
10:15PM 40.7063 -104.8746 13° North 435 501 27,500 2,340 Climbing FlightAware ADS-B (KEIK)
10:15PM 40.7878 -104.8599 356° North 423 487 29,000 1,920 Climbing FlightAware ADS-B (KEIK)
10:16PM 40.8225 -104.8700 342° North 421 484 29,400 1,080 Climbing FlightAware ADS-B (KEIK)
10:16PM 40.8830 -104.9060 333° Northwest 420 483 30,000 420 Climbing FlightAware ADS-B (KANK)
10:17PM 40.9570 -104.9564 333° Northwest 433 498 30,000  Level FlightAware ADS-B (KANK)
10:18PM 41.0294 -105.0052 333° Northwest 435 501 30,000  Level FlightAware ADS-B (KANK)
10:18PM 41.1071 -105.0581 333° Northwest 435 501 30,000 660 Level FlightAware ADS-B (KANK)
10:19PM 41.1874 -105.1128 333° Northwest 437 503 31,000 1,200 Climbing FlightAware ADS-B (KANK)
10:20PM 41.2518 -105.1567 333° Northwest 442 509 31,700 1,140 Climbing FlightAware ADS-B (KANK)
10:21PM 41.3361 -105.2139 333° Northwest 448 516 32,600 1,260 Climbing FlightAware ADS-B (KANK)
10:21PM 41.4089 -105.2639 333° Northwest 450 518 33,500 1,020 Climbing FlightAware ADS-B (KEIK)
10:22PM 41.4840 -105.3156 333° Northwest 450 518 34,000 360 Climbing FlightAware ADS-B (KEIK)
10:23PM 41.5639 -105.3708 333° Northwest 456 525 34,000  Level FlightAware ADS-B (KEIK)
10:23PM 41.6375 -105.4216 333° Northwest 456 525 34,000  Level FlightAware ADS-B (KEIK)
10:24PM 41.7126 -105.4736 333° Northwest 458 527 34,000  Level FlightAware ADS-B (KEIK)
10:25PM 41.7889 -105.5266 333° Northwest 456 525 34,000  Level FlightAware ADS-B (KEIK)
10:25PM 41.8613 -105.5770 333° Northwest 455 524 34,000 120 Level FlightAware ADS-B (KEIK)
10:26PM 41.9209 -105.6183 333° Northwest 458 527 34,200 600 Climbing FlightAware ADS-B (KEIK)
10:27PM 42.0186 -105.6866 332° Northwest 461 531 34,900 960 Climbing FlightAware ADS-B (KEIK)
10:27PM 42.0817 -105.7309 332° Northwest 461 531 35,700 780 Climbing FlightAware ADS-B (KEIK)
10:28PM 42.1616 -105.7873 332° Northwest 458 527 36,000 180 Climbing FlightAware ADS-B (KEIK)
10:29PM 42.2438 -105.8458 332° Northwest 459 528 36,000  Level FlightAware ADS-B (KEIK)
10:30PM 42.3487 -105.9203 332° Northwest 449 517 36,000  Level FlightAware ADS-B (KEIK)
10:30PM 42.4297 -105.9776 332° Northwest 448 516 36,000 -180 Level FlightAware ADS-B (KEIK)
10:31PM 42.5027 -106.0294 332° Northwest 449 517 35,800 -660 Descending FlightAware ADS-B (KEIK)
10:32PM 42.5794 -106.0844 332° Northwest 455 524 35,100 -1,020 Descending FlightAware ADS-B (KEIK)
10:32PM 42.6518 -106.1360 332° Northwest 457 526 34,500 -1,020 Descending FlightAware ADS-B (KEIK)
10:33PM 42.7293 -106.1919 332° Northwest 458 527 33,800 -900 Descending FlightAware ADS-B (KEIK)
10:34PM 42.8672 -106.2942 332° Northwest 458 527 32,700 -900 Descending Salt Lake Center
10:36PM 42.9967 -106.3853 333° Northwest 464 534 31,600 -960 Descending Denver Center
10:37PM 43.1058 -106.4636 332° Northwest 464 534 30,700 -840 Descending Denver Center
10:38PM 43.2300 -106.5572 331° Northwest 461 531 30,000 -360 Descending Denver Center
10:39PM 43.3406 -106.6369 332° Northwest 463 533 30,000  Level Denver Center
10:40PM 43.4508 -106.7200 331° Northwest 468 539 30,000  Level Salt Lake Center
10:41PM 43.5592 -106.8000 332° Northwest 466 536 30,000  Level Salt Lake Center
10:42PM 43.6808 -106.8883 332° Northwest 462 532 30,000  Level Denver Center
10:43PM 43.7942 -106.9742 331° Northwest 463 533 30,000  Level Denver Center
10:44PM 43.9319 -107.0764 332° Northwest 466 536 30,000  Level Denver Center
10:45PM 44.0228 -107.1450 331° Northwest 471 542 30,000  Level Salt Lake Center
10:46PM 44.1486 -107.2014 342° North 473 544 30,000  Level Salt Lake Center
10:47PM 44.2983 -107.2719 341° North 474 545 30,000  Level Salt Lake Center
10:48PM 44.4239 -107.3292 342° North 476 548 30,000 -960 Level Salt Lake Center
10:54PM 45.1524 -107.6881 341° North 460 529 23,700 -1,260 Descending FlightAware ADS-B (KBIL)
10:55PM 45.2410 -107.7612 325° Northwest 416 479 21,400 -2,700 Descending FlightAware ADS-B (KBIL)
10:55PM 45.2999 -107.8204 325° Northwest 404 465 19,700 -3,000 Descending FlightAware ADS-B (KBIL)
10:56PM 45.3458 -107.8665 325° Northwest 401 461 18,100 -3,300 Descending FlightAware ADS-B (KBIL)
10:56PM 45.4106 -107.9317 325° Northwest 403 464 15,700 -3,180 Descending FlightAware ADS-B (KBIL)
10:57PM 45.4524 -107.9737 325° Northwest 397 457 14,400 -2,520 Descending FlightAware ADS-B (KBIL)
10:57PM 45.4977 -108.0190 325° Northwest 383 441 13,200 -2,520 Descending FlightAware ADS-B (KBIL)
10:58PM 45.5318 -108.0536 325° Northwest 373 429 12,100 -2,700 Descending FlightAware ADS-B (KBIL)
10:58PM 45.5826 -108.1057 325° Northwest 359 413 10,600 -1,800 Descending FlightAware ADS-B (KBIL)
10:59PM 45.6252 -108.1485 325° Northwest 332 382 10,100 -780 Descending FlightAware ADS-B (KBIL)
10:59PM 45.6535 -108.1775 325° Northwest 307 353 9,900 -480 Descending FlightAware ADS-B (KBIL)
11:00PM 45.6712 -108.1958 325° Northwest 292 336 9,800 -420 Descending FlightAware ADS-B (KBIL)
11:00PM 45.6885 -108.2133 325° Northwest 276 318 9,700 -1,020 Descending FlightAware ADS-B (KBIL)
11:00PM 45.7029 -108.2280 324° Northwest 266 306 9,300 -2,400 Descending FlightAware ADS-B (KBIL)
11:00PM 45.7181 -108.2442 324° Northwest 268 308 8,500 -3,540 Descending FlightAware ADS-B (KBIL)
11:00PM 45.7263 -108.2550 312° West 273 314 7,900 -3,240 Descending FlightAware ADS-B (KBIL)
11:01PM 45.7290 -108.2604 303° West 274 315 7,800 -1,800 Descending FlightAware ADS-B (KBIL)
11:01PM 45.7320 -108.2693 294° West 269 310 7,600 -1,380 Descending FlightAware ADS-B (KBIL)
11:01PM 45.7393 -108.2961 293° West 248 285 7,300 -1,680 Descending FlightAware ADS-B (KBIL)
11:01PM 45.7452 -108.3149 294° West 242 278 6,800 -1,980 Descending FlightAware ADS-B (KBIL)
11:01PM 45.7516 -108.3356 295° West 227 261 6,400 -1,320 Descending FlightAware ADS-B (KBIL)
11:02PM 45.7586 -108.3576 294° West 196 226 6,100 -1,140 Descending FlightAware ADS-B (KBIL)
11:02PM 45.7632 -108.3750 290° West 179 206 5,800 -1,080 Descending FlightAware ADS-B (KBIL)
11:02PM 45.7663 -108.3890 289° West 168 193 5,600 -1,080 Descending FlightAware ADS-B (KBIL)
11:02PM 45.7706 -108.4051 291° West 155 178 5,300 -1,140 Descending FlightAware ADS-B (KBIL)
11:03PM 45.7746 -108.4190 293° West 151 174 5,000 -1,020 Descending FlightAware ADS-B (KBIL)
11:03PM 45.7786 -108.4329 293° West 146 168 4,800 -720 Descending FlightAware ADS-B (KBIL)
11:03PM 45.7833 -108.4495 293° West 144 166 4,600 -780 Descending FlightAware ADS-B (KBIL)
11:03PM 45.7869 -108.4621 293° West 147 169 4,400 -780 Descending FlightAware ADS-B (KBIL)
11:04PM 45.7911 -108.4772 293° West 145 167 4,200 -720 Descending FlightAware ADS-B (KBIL)
11:04PM 45.7958 -108.4938 293° West 146 168 4,000 -720 Descending FlightAware ADS-B (KBIL)
11:04PM 45.7998 -108.5085 292° West 145 167 3,800 -600 Descending FlightAware ADS-B (KBIL)
11:05PM 45.8032 -108.5205 292° West 145 167 3,700 -480 Descending FlightAware ADS-B (KBIL)